createdAt,value
2018-10-02T00:01:36.647Z,15.43
2018-10-02T00:04:19.739Z,14.60
2018-10-02T00:07:02.400Z,19.33
2018-10-02T00:09:45.141Z,11.80
2018-10-02T00:12:32.770Z,6.60
2018-10-02T00:15:15.378Z,20.07
2018-10-02T00:17:58.104Z,11.10
2018-10-02T00:20:41.276Z,26.03
2018-10-02T00:23:24.506Z,28.13
2018-10-02T00:26:07.374Z,18.67
2018-10-02T00:28:50.075Z,24.57
2018-10-02T00:31:32.840Z,13.13
2018-10-02T00:34:15.915Z,11.57
2018-10-02T00:36:58.298Z,24.87
2018-10-02T00:39:41.283Z,9.40
2018-10-02T00:42:23.594Z,43.10
2018-10-02T00:45:06.444Z,13.80
2018-10-02T00:47:49.333Z,16.63
2018-10-02T00:50:32.148Z,7.47
2018-10-02T00:53:14.932Z,5.73
2018-10-02T00:55:57.750Z,17.90
2018-10-02T00:58:40.512Z,12.00
2018-10-02T01:01:23.506Z,7.03
2018-10-02T01:04:06.201Z,15.50
2018-10-02T01:06:48.991Z,10.70
2018-10-02T01:09:31.641Z,9.03
2018-10-02T01:12:14.083Z,14.17
2018-10-02T01:14:57.220Z,9.00
2018-10-02T01:17:39.600Z,6.27
2018-10-02T01:20:22.350Z,25.23
2018-10-02T01:23:05.573Z,5.90
2018-10-02T01:25:48.750Z,4.23
2018-10-02T01:28:31.090Z,8.67
2018-10-02T01:31:14.143Z,4.73
2018-10-02T01:33:56.743Z,6.07
2018-10-02T01:36:39.583Z,10.03
2018-10-02T01:39:22.550Z,13.33
2018-10-02T01:42:05.476Z,8.70
2018-10-02T01:44:47.873Z,9.83
2018-10-02T01:47:30.787Z,10.83
2018-10-02T01:50:13.666Z,4.90
2018-10-02T01:52:56.367Z,17.70
2018-10-02T01:55:39.918Z,8.93
2018-10-02T01:58:23.153Z,14.90
2018-10-02T02:01:05.876Z,10.67
2018-10-02T02:03:48.878Z,9.63
2018-10-02T02:06:31.369Z,6.33
2018-10-02T02:09:14.161Z,7.67
2018-10-02T02:11:56.969Z,6.63
2018-10-02T02:14:40.090Z,14.93
2018-10-02T02:17:22.374Z,6.10
2018-10-02T02:20:04.998Z,25.67
2018-10-02T02:22:47.646Z,4.87
2018-10-02T02:25:31.347Z,7.80
2018-10-02T02:28:14.206Z,10.03
2018-10-02T02:30:57.375Z,14.90
2018-10-02T02:33:40.557Z,19.23
2018-10-02T02:36:23.725Z,5.33
2018-10-02T02:39:07.521Z,16.23
2018-10-02T02:41:50.490Z,19.60
2018-10-02T02:44:33.126Z,9.47
2018-10-02T02:47:21.271Z,26.13
2018-10-02T02:50:18.115Z,1.93
2018-10-02T02:53:04.546Z,12.37
2018-10-02T02:55:47.591Z,15.43
2018-10-02T02:58:29.967Z,13.80
2018-10-02T03:01:14.439Z,9.53
2018-10-02T03:03:57.207Z,18.83
2018-10-02T03:06:39.763Z,9.63
2018-10-02T03:09:22.958Z,8.60
2018-10-02T03:12:06.199Z,14.70
2018-10-02T03:14:49.262Z,5.33
2018-10-02T03:17:31.666Z,5.90
2018-10-02T03:20:14.465Z,7.73
2018-10-02T03:22:57.251Z,3.40
2018-10-02T03:25:40.213Z,8.00
2018-10-02T03:28:22.879Z,4.00
2018-10-02T03:31:05.415Z,8.17
2018-10-02T03:33:48.247Z,11.43
2018-10-02T03:36:31.563Z,8.30
2018-10-02T03:39:14.455Z,8.50
2018-10-02T03:41:57.527Z,7.00
2018-10-02T03:44:40.306Z,10.60
2018-10-02T03:47:23.683Z,11.80
2018-10-02T03:50:06.457Z,8.23
2018-10-02T03:52:48.923Z,11.57
2018-10-02T03:55:31.802Z,5.40
2018-10-02T03:58:14.489Z,10.93
2018-10-02T04:00:57.394Z,8.70
2018-10-02T04:03:40.699Z,9.90
2018-10-02T04:06:24.221Z,3.13
2018-10-02T04:09:09.663Z,5.80
2018-10-02T04:11:52.364Z,8.27
2018-10-02T04:14:35.243Z,25.10
2018-10-02T04:17:17.887Z,29.97
2018-10-02T04:20:01.514Z,23.13
2018-10-02T04:22:44.910Z,59.13
2018-10-02T04:25:27.671Z,27.50
2018-10-02T04:28:10.543Z,11.93
2018-10-02T04:30:53.211Z,10.53
2018-10-02T04:33:36.570Z,22.67
2018-10-02T04:36:19.606Z,20.07
2018-10-02T04:39:02.802Z,9.73
2018-10-02T04:41:45.695Z,8.77
2018-10-02T04:44:29.058Z,10.13
2018-10-02T04:47:12.043Z,11.73
2018-10-02T04:49:54.851Z,18.23
2018-10-02T04:52:37.330Z,6.57
2018-10-02T04:55:20.547Z,7.90
2018-10-02T04:58:03.194Z,10.93
2018-10-02T05:00:46.330Z,36.27
2018-10-02T05:03:29.603Z,16.03
2018-10-02T05:06:12.352Z,27.73
2018-10-02T05:08:54.847Z,16.97
2018-10-02T05:11:37.387Z,6.73
2018-10-02T05:14:21.438Z,4.37
2018-10-02T05:17:04.642Z,14.83
2018-10-02T05:19:47.519Z,25.20
2018-10-02T05:22:30.161Z,36.27
2018-10-02T05:25:13.121Z,3.80
2018-10-02T05:27:56.078Z,28.20
2018-10-02T05:30:39.397Z,26.03
2018-10-02T05:33:21.791Z,17.87
2018-10-02T05:36:04.664Z,31.23
2018-10-02T05:38:47.423Z,31.80
2018-10-02T05:41:30.886Z,34.10
2018-10-02T05:44:14.111Z,70.93
2018-10-02T05:46:56.843Z,14.77
2018-10-02T05:49:39.289Z,26.43
2018-10-02T05:52:22.012Z,39.27
2018-10-02T05:55:05.555Z,26.60
2018-10-02T05:57:48.520Z,19.90
2018-10-02T06:00:30.926Z,15.90
2018-10-02T06:03:13.572Z,6.37
2018-10-02T06:05:56.519Z,7.07
2018-10-02T06:08:39.023Z,9.37
2018-10-02T06:11:21.774Z,62.53
2018-10-02T06:14:09.162Z,20.00
2018-10-02T06:16:52.416Z,6.87
2018-10-02T06:19:35.551Z,11.40
2018-10-02T06:22:20.728Z,8.53
2018-10-02T06:25:03.384Z,10.43
2018-10-02T06:27:46.408Z,16.37
2018-10-02T06:30:29.496Z,20.77
2018-10-02T06:33:12.242Z,30.13
2018-10-02T06:35:54.551Z,38.20
2018-10-02T06:38:37.942Z,12.47
2018-10-02T06:41:20.546Z,11.07
2018-10-02T06:44:03.433Z,12.83
2018-10-02T06:46:45.954Z,23.53
2018-10-02T06:49:29.183Z,16.47
2018-10-02T06:52:12.313Z,4.83
2018-10-02T06:54:54.683Z,23.37
2018-10-02T06:57:38.174Z,7.30
2018-10-02T07:00:21.324Z,17.70
2018-10-02T07:03:04.127Z,11.37
2018-10-02T07:05:47.198Z,7.50
2018-10-02T07:08:29.567Z,13.10
2018-10-02T07:11:12.094Z,13.50
2018-10-02T07:13:54.699Z,24.73
2018-10-02T07:16:37.510Z,27.53
2018-10-02T07:19:20.226Z,37.87
2018-10-02T07:22:02.919Z,5.27
2018-10-02T07:24:45.801Z,12.07
2018-10-02T07:27:28.571Z,5.53
2018-10-02T07:30:11.278Z,5.90
2018-10-02T07:32:53.874Z,16.33
2018-10-02T07:35:36.606Z,4.87
2018-10-02T07:38:19.405Z,10.80
2018-10-02T07:41:02.213Z,12.20
2018-10-02T07:43:44.786Z,10.03
2018-10-02T07:46:27.820Z,8.53
2018-10-02T07:49:10.334Z,9.23
2018-10-02T07:51:53.210Z,6.87
2018-10-02T07:54:35.800Z,10.03
2018-10-02T07:57:18.536Z,10.70
2018-10-02T08:00:01.269Z,9.20
2018-10-02T08:02:44.269Z,12.80
2018-10-02T08:05:26.980Z,7.63
2018-10-02T08:08:09.784Z,14.37
2018-10-02T08:10:53.319Z,39.27
2018-10-02T08:13:36.088Z,9.10
2018-10-02T08:16:18.510Z,7.83
2018-10-02T08:19:01.166Z,13.97
2018-10-02T08:21:43.862Z,34.53
2018-10-02T08:24:26.694Z,10.70
2018-10-02T08:27:09.589Z,11.05
2018-10-02T08:29:52.107Z,5.35
2018-10-02T08:32:34.890Z,13.83
2018-10-02T08:35:17.476Z,23.73
2018-10-02T08:38:00.178Z,28.87
2018-10-02T08:40:43.179Z,29.65
2018-10-02T08:43:26.068Z,17.10
2018-10-02T08:46:09.255Z,13.60
2018-10-02T08:48:52.446Z,17.35
2018-10-02T08:51:35.163Z,10.05
2018-10-02T08:54:17.993Z,26.40
2018-10-02T08:57:01.462Z,20.43
2018-10-02T08:59:44.780Z,16.77
2018-10-02T09:02:27.209Z,24.18
2018-10-02T09:05:09.885Z,19.37
2018-10-02T09:07:52.858Z,18.32
2018-10-02T09:10:35.330Z,8.63
2018-10-02T09:13:18.450Z,9.10
2018-10-02T09:16:01.052Z,6.58
2018-10-02T09:18:43.791Z,9.40
2018-10-02T09:21:26.471Z,20.02
2018-10-02T09:24:09.222Z,10.23
2018-10-02T09:26:51.907Z,22.30
2018-10-02T09:29:38.738Z,18.52
2018-10-02T09:32:26.342Z,13.60
2018-10-02T09:35:14.105Z,13.25
2018-10-02T09:38:01.919Z,12.00
2018-10-02T09:40:49.418Z,8.40
2018-10-02T09:43:42.406Z,12.07
2018-10-02T09:46:25.924Z,12.73
2018-10-02T09:49:08.992Z,7.55
2018-10-02T09:51:51.573Z,7.90
2018-10-02T09:54:34.469Z,13.70
2018-10-02T09:57:17.363Z,13.15
2018-10-02T10:00:00.300Z,20.08
2018-10-02T10:02:43.231Z,13.25
2018-10-02T10:05:26.193Z,12.25
2018-10-02T10:08:08.727Z,15.05
2018-10-02T10:10:51.455Z,7.80
2018-10-02T10:13:33.895Z,11.70
2018-10-02T10:16:16.601Z,18.37
2018-10-02T10:18:59.375Z,10.43
2018-10-02T10:21:42.741Z,8.53
2018-10-02T10:24:25.095Z,17.90
2018-10-02T10:27:08.112Z,16.48
2018-10-02T10:29:50.837Z,15.80
2018-10-02T10:32:33.162Z,8.38
2018-10-02T10:35:15.979Z,17.35
2018-10-02T10:37:59.032Z,17.73
2018-10-02T10:40:41.893Z,5.60
2018-10-02T10:43:24.637Z,3.75
2018-10-02T10:46:07.298Z,5.50
2018-10-02T10:48:50.095Z,7.80
2018-10-02T10:51:32.758Z,10.82
2018-10-02T10:54:15.651Z,15.75
2018-10-02T10:56:59.532Z,9.38
2018-10-02T10:59:42.237Z,6.65
2018-10-02T11:02:25.023Z,12.30
2018-10-02T11:05:07.990Z,14.43
2018-10-02T11:07:50.541Z,10.65
2018-10-02T11:10:33.347Z,19.77
2018-10-02T11:13:16.278Z,26.55
2018-10-02T11:15:59.376Z,22.55
2018-10-02T11:18:41.845Z,19.95
2018-10-02T11:21:24.496Z,9.00
2018-10-02T11:24:07.809Z,21.30
2018-10-02T11:26:50.204Z,9.90
2018-10-02T11:29:33.070Z,9.58
2018-10-02T11:32:16.827Z,15.78
2018-10-02T11:34:59.794Z,6.40
2018-10-02T11:37:43.105Z,11.45
2018-10-02T11:40:25.409Z,5.60
2018-10-02T11:43:08.480Z,11.18
2018-10-02T11:45:51.160Z,15.38
2018-10-02T11:48:34.580Z,11.05
2018-10-02T11:51:17.174Z,12.35
2018-10-02T11:53:59.658Z,14.00
2018-10-02T11:56:42.454Z,13.55
2018-10-02T11:59:25.064Z,6.75
2018-10-02T12:02:07.990Z,19.92
2018-10-02T12:04:50.554Z,10.13
2018-10-02T12:07:33.305Z,16.02
2018-10-02T12:10:16.113Z,16.48
2018-10-02T12:12:59.391Z,18.23
2018-10-02T12:15:42.565Z,14.18
2018-10-02T12:18:25.787Z,27.00
2018-10-02T12:21:09.779Z,21.35
2018-10-02T12:23:53.824Z,23.10
2018-10-02T12:26:37.267Z,17.35
2018-10-02T12:29:20.532Z,10.08
2018-10-02T12:32:03.333Z,22.52
2018-10-02T12:34:46.402Z,11.38
2018-10-02T12:37:29.191Z,15.83
2018-10-02T12:40:12.857Z,14.80
2018-10-02T12:42:56.308Z,10.48
2018-10-02T12:45:38.958Z,13.32
2018-10-02T12:48:21.680Z,10.68
2018-10-02T12:51:04.635Z,8.53
2018-10-02T12:53:47.686Z,19.73
2018-10-02T12:56:30.825Z,9.98
2018-10-02T12:59:14.765Z,20.80
2018-10-02T13:01:57.290Z,8.48
2018-10-02T13:04:39.767Z,21.93
2018-10-02T13:07:22.787Z,12.75
2018-10-02T13:10:06.386Z,21.52
2018-10-02T13:12:49.099Z,14.18
2018-10-02T13:15:32.483Z,30.05
2018-10-02T13:18:15.687Z,14.25
2018-10-02T13:20:59.705Z,8.53
2018-10-02T13:23:42.755Z,16.77
2018-10-02T13:26:25.371Z,20.90
2018-10-02T13:29:08.926Z,14.35
2018-10-02T13:31:51.530Z,23.55
2018-10-02T13:34:34.572Z,16.00
2018-10-02T13:37:18.102Z,15.38
2018-10-02T13:40:01.526Z,19.35
2018-10-02T13:42:44.868Z,12.03
2018-10-02T13:45:28.251Z,30.67
2018-10-02T13:48:11.058Z,18.82
2018-10-02T13:50:53.407Z,19.47
2018-10-02T13:53:36.606Z,8.65
2018-10-02T13:56:19.474Z,15.88
2018-10-02T13:59:02.786Z,11.97
2018-10-02T14:01:46.059Z,19.90
2018-10-02T14:04:28.645Z,16.93
2018-10-02T14:07:11.605Z,8.60
2018-10-02T14:09:54.249Z,15.33
2018-10-02T14:12:37.592Z,8.83
2018-10-02T14:15:20.032Z,17.53
2018-10-02T14:18:02.934Z,20.93
2018-10-02T14:20:46.203Z,12.70
2018-10-02T14:23:30.094Z,20.53
2018-10-02T14:26:12.414Z,9.60
2018-10-02T14:28:55.535Z,21.50
2018-10-02T14:31:38.292Z,14.40
2018-10-02T14:34:20.886Z,10.50
2018-10-02T14:37:04.136Z,12.00
2018-10-02T14:39:46.706Z,10.97
2018-10-02T14:42:30.092Z,16.37
2018-10-02T14:45:12.498Z,16.00
2018-10-02T14:47:55.474Z,11.00
2018-10-02T14:50:38.684Z,15.53
2018-10-02T14:53:22.099Z,18.57
2018-10-02T14:56:06.739Z,34.00
2018-10-02T14:58:49.978Z,14.20
2018-10-02T15:01:33.205Z,23.93
2018-10-02T15:04:16.004Z,23.13
2018-10-02T15:07:03.373Z,24.07
2018-10-02T15:09:46.260Z,14.57
2018-10-02T15:12:29.345Z,17.97
2018-10-02T15:15:11.747Z,21.47
2018-10-02T15:17:54.534Z,19.30
2018-10-02T15:20:37.553Z,18.40
2018-10-02T15:23:20.583Z,8.57
2018-10-02T15:26:04.080Z,20.63
2018-10-02T15:28:46.839Z,24.03
2018-10-02T15:31:29.858Z,18.77
2018-10-02T15:34:12.983Z,19.67
2018-10-02T15:36:55.558Z,15.00
2018-10-02T15:39:38.035Z,24.27
2018-10-02T15:42:23.163Z,17.33
2018-10-02T15:45:06.039Z,10.50
2018-10-02T15:47:48.564Z,13.47
2018-10-02T15:50:31.473Z,7.00
2018-10-02T15:53:13.857Z,9.73
2018-10-02T15:55:57.478Z,11.90
2018-10-02T15:58:40.471Z,10.80
2018-10-02T16:01:24.358Z,16.40
2018-10-02T16:04:08.319Z,11.10
2018-10-02T16:06:51.298Z,6.80
2018-10-02T16:09:34.510Z,14.03
2018-10-02T16:12:17.597Z,21.20
2018-10-02T16:15:00.031Z,22.37
2018-10-02T16:17:42.971Z,16.17
2018-10-02T16:20:25.695Z,41.70
2018-10-02T16:23:08.495Z,8.40
2018-10-02T16:25:51.331Z,11.33
2018-10-02T16:28:34.083Z,25.63
2018-10-02T16:31:16.734Z,17.13
2018-10-02T16:33:59.661Z,44.97
2018-10-02T16:36:42.459Z,24.13
2018-10-02T16:39:25.302Z,24.63
2018-10-02T16:42:08.182Z,24.20
2018-10-02T16:44:51.338Z,30.23
2018-10-02T16:47:34.075Z,35.83
2018-10-02T16:50:16.973Z,28.87
2018-10-02T16:53:00.406Z,16.90
2018-10-02T16:55:43.399Z,30.13
2018-10-02T16:58:26.691Z,30.80
2018-10-02T17:01:09.167Z,22.80
2018-10-02T17:03:52.003Z,14.60
2018-10-02T17:06:34.861Z,12.37
2018-10-02T17:09:17.790Z,17.47
2018-10-02T17:12:00.577Z,18.63
2018-10-02T17:14:43.298Z,6.70
2018-10-02T17:17:26.316Z,10.73
2018-10-02T17:20:09.217Z,6.87
2018-10-02T17:22:52.157Z,37.43
2018-10-02T17:25:35.289Z,65.37
2018-10-02T17:28:18.575Z,71.83
2018-10-02T17:31:01.334Z,360.23
2018-10-02T17:33:44.828Z,171.60
2018-10-02T17:36:28.549Z,113.37
2018-10-02T17:39:11.982Z,55.73
2018-10-02T17:41:55.134Z,47.37
2018-10-02T17:44:38.261Z,114.40
2018-10-02T17:47:20.594Z,120.13
2018-10-02T17:50:03.427Z,83.67
2018-10-02T17:52:46.402Z,131.37
2018-10-02T17:55:29.659Z,232.87
2018-10-02T17:58:12.753Z,219.60
2018-10-02T18:00:55.739Z,159.13
2018-10-02T18:03:38.976Z,92.20
2018-10-02T18:06:21.673Z,236.73
2018-10-02T18:09:06.017Z,225.70
2018-10-02T18:11:49.111Z,195.33
2018-10-02T18:14:32.333Z,82.50
2018-10-02T18:17:15.607Z,34.63
2018-10-02T18:19:59.116Z,34.40
2018-10-02T18:22:41.815Z,327.17
2018-10-02T18:25:25.431Z,256.27
2018-10-02T18:28:08.114Z,468.27
2018-10-02T18:30:51.602Z,732.13
2018-10-02T18:33:34.050Z,264.00
2018-10-02T18:36:17.196Z,134.50
2018-10-02T18:39:00.922Z,124.67
2018-10-02T18:41:43.554Z,105.07
2018-10-02T18:44:26.651Z,59.43
2018-10-02T18:47:10.350Z,48.27
2018-10-02T18:49:53.843Z,32.90
2018-10-02T18:52:36.294Z,43.77
2018-10-02T18:55:19.110Z,21.67
2018-10-02T18:58:02.180Z,13.57
2018-10-02T19:00:45.302Z,51.00
2018-10-02T19:03:28.645Z,435.33
2018-10-02T19:06:11.846Z,471.77
2018-10-02T19:09:27.140Z,365.80
2018-10-02T19:12:17.079Z,528.10
2018-10-02T19:14:59.858Z,448.40
2018-10-02T19:17:42.650Z,296.93
2018-10-02T19:20:30.446Z,262.27
2018-10-02T19:23:13.014Z,82.60
2018-10-02T19:26:28.814Z,80.77
2018-10-02T19:29:11.215Z,38.07
2018-10-02T19:32:01.457Z,41.33
2018-10-02T19:34:43.838Z,36.87
2018-10-02T19:37:32.077Z,21.00
2018-10-02T19:40:14.780Z,15.43
2018-10-02T19:42:57.349Z,21.17
2018-10-02T19:45:45.152Z,30.13
2018-10-02T19:48:28.211Z,21.73
2018-10-02T19:51:16.127Z,19.53
2018-10-02T19:53:58.934Z,9.57
2018-10-02T19:56:41.806Z,38.63
2018-10-02T19:59:24.587Z,61.33
2018-10-02T20:02:07.814Z,18.63
2018-10-02T20:04:50.103Z,37.37
2018-10-02T20:07:33.411Z,53.80
2018-10-02T20:10:16.199Z,45.73
2018-10-02T20:12:59.325Z,45.63
2018-10-02T20:15:42.062Z,14.30
2018-10-02T20:18:24.875Z,7.40
2018-10-02T20:21:08.250Z,33.03
2018-10-02T20:23:51.189Z,34.27
2018-10-02T20:26:34.014Z,35.77
2018-10-02T20:29:17.076Z,37.57
2018-10-02T20:31:59.464Z,20.40
2018-10-02T20:34:43.051Z,30.97
2018-10-02T20:37:26.706Z,25.23
2018-10-02T20:40:09.766Z,65.47
2018-10-02T20:42:53.630Z,79.30
2018-10-02T20:45:36.580Z,62.90
2018-10-02T20:48:19.054Z,64.00
2018-10-02T20:51:01.820Z,54.43
2018-10-02T20:53:44.628Z,17.23
2018-10-02T20:56:28.016Z,31.17
2018-10-02T20:59:11.386Z,87.97
2018-10-02T21:01:54.050Z,85.93
2018-10-02T21:04:36.818Z,70.40
2018-10-02T21:07:19.790Z,138.63
2018-10-02T21:10:02.434Z,59.57
2018-10-02T21:12:45.178Z,60.50
2018-10-02T21:15:27.661Z,48.00
2018-10-02T21:18:10.322Z,101.67
2018-10-02T21:20:53.334Z,81.67
2018-10-02T21:23:36.392Z,53.90
2018-10-02T21:26:19.354Z,59.07
2018-10-02T21:29:02.464Z,28.73
2018-10-02T21:31:45.616Z,52.50
2018-10-02T21:34:28.429Z,51.57
2018-10-02T21:37:11.687Z,12.43
2018-10-02T21:39:54.492Z,16.00
2018-10-02T21:42:37.418Z,54.67
2018-10-02T21:45:20.211Z,93.43
2018-10-02T21:48:02.901Z,82.67
2018-10-02T21:50:45.554Z,56.97
2018-10-02T21:53:28.349Z,52.57
2018-10-02T21:56:11.142Z,63.53
2018-10-02T21:58:53.931Z,65.30
2018-10-02T22:01:36.575Z,120.00
2018-10-02T22:04:20.093Z,77.23
2018-10-02T22:07:02.822Z,47.37
2018-10-02T22:09:45.820Z,34.27
2018-10-02T22:12:28.812Z,61.93
2018-10-02T22:15:11.552Z,45.53
2018-10-02T22:17:54.110Z,107.33
2018-10-02T22:20:37.214Z,153.20
2018-10-02T22:23:20.615Z,86.03
2018-10-02T22:26:03.814Z,119.43
2018-10-02T22:28:46.617Z,83.07
2018-10-02T22:31:29.375Z,62.40
2018-10-02T22:34:12.278Z,24.83
2018-10-02T22:36:55.047Z,52.47
2018-10-02T22:39:37.825Z,39.67
2018-10-02T22:42:20.255Z,35.90
2018-10-02T22:45:03.042Z,48.90
2018-10-02T22:47:45.804Z,89.57
2018-10-02T22:50:31.678Z,34.17
2018-10-02T22:53:14.912Z,38.97
2018-10-02T22:55:58.199Z,13.77
2018-10-02T22:58:40.501Z,30.20
2018-10-02T23:01:23.062Z,23.83
2018-10-02T23:04:07.104Z,39.63
2018-10-02T23:06:49.529Z,43.13
2018-10-02T23:09:32.350Z,30.77
2018-10-02T23:12:15.419Z,20.40
2018-10-02T23:14:58.167Z,32.50
2018-10-02T23:17:41.395Z,8.73
2018-10-02T23:20:23.757Z,9.30
2018-10-02T23:23:06.477Z,6.83
2018-10-02T23:25:49.654Z,34.57
2018-10-02T23:28:32.554Z,20.53
2018-10-02T23:31:15.438Z,11.20
2018-10-02T23:33:58.718Z,15.17
2018-10-02T23:36:41.666Z,22.80
2018-10-02T23:39:24.051Z,33.67
2018-10-02T23:42:06.769Z,27.90
2018-10-02T23:44:49.629Z,16.90
2018-10-02T23:47:32.310Z,10.47
2018-10-02T23:50:14.731Z,8.83
2018-10-02T23:52:57.516Z,23.77
2018-10-02T23:55:40.289Z,21.77
2018-10-02T23:58:23.278Z,13.73
